Station: Pallamana

  Atmospheric Gas Attenuation - ITU Rec 676-11   --------------- db/100km ---------------
Date Time Temp RH % AH g/m3 Dew Point Wind Direction Speed kph Gust kph Barometer mB Rainfall Since 9am 24GHz 47GHz 76GHz 122GHz 134GHz 241GHz
15 02:00 10 100 9.4 10 15 17 1017.3 0.2 21.5 28.6 45.4 119.3 115.1 396.2
15 01:50 10.1 99 9.36 9.9 17 19 1017.2 0.2 21.4 28.5 45.2 118.7 114.3 393.6
15 01:40 10.2 100 9.52 10.2 13 17 1017.2 0.2 21.7 28.7 45.8 120.4 116.5 401.2
15 01:30 10.2 100 9.52 10.2 15 17 1017.1 0.2 21.7 28.7 45.8 120.4 116.5 401.1
15 01:20 10.3 100 9.58 10.3 15 20 1017.1 0.2 21.9 28.8 46.0 120.9 117.2 403.6
15 01:10 10.4 100 9.64 10.4 15 19 1017 0.2 22.0 28.9 46.2 121.4 117.9 406.1
15 01:00 10.5 99 9.6 10.3 11 15 1017 0.2 21.9 28.8 46.0 120.8 117.1 403.6
15 00:50 10.5 99 9.6 10.3 11 13 1017 0.2 21.9 28.8 46.0 120.8 117.1 403.6
15 00:40 10.4 100 9.64 10.4 19 20 1017 0.2 22.0 28.9 46.2 121.4 117.9 406.1
15 00:30 10.4 100 9.64 10.4 17 19 1016.9 0.2 22.0 28.8 46.2 121.4 117.9 406.1
15 00:20 10.6 100 9.76 10.6 11 13 1017 0.2 22.2 29.0 46.6 122.5 119.3 411.1
15 00:10 10.7 100 9.82 10.7 13 15 1017 0.2 22.4 29.1 46.8 123.1 120.0 413.6
15 00:00 10.7 100 9.82 10.7 11 15 1016.9 0.2 22.4 29.1 46.8 123.1 120.0 413.5
14 23:50 10.7 100 9.82 10.7 13 15 1016.9 0.2 22.4 29.1 46.8 123.1 120.0 413.5
14 23:40 10.7 100 9.82 10.7 13 15 1016.8 0.2 22.4 29.1 46.8 123.1 120.0 413.5
14 23:30 10.8 100 9.89 10.8 13 15 1016.9 0.2 22.5 29.2 47.1 123.7 120.8 416.5
14 23:20 10.8 100 9.89 10.8 11 13 1016.9 0.2 22.5 29.2 47.1 123.7 120.8 416.5
14 23:10 10.9 100 9.95 10.9 15 17 1016.9 0.2 22.6 29.2 47.3 124.3 121.6 419.0
14 23:00 10.9 99 9.85 10.7 17 19 1016.8 0.2 22.4 29.0 46.8 123.1 120.1 413.9
14 22:50 11.1 100 10.07 11.1 11 15 1016.8 0.2 22.9 29.4 47.7 125.3 123.0 424.0
14 22:40 11.1 100 10.07 11.1 7 9 1016.7 0.2 22.9 29.4 47.7 125.3 123.0 423.9
14 22:30 11.1 100 10.07 11.1 9 9 1016.7 0.2 22.9 29.4 47.7 125.3 123.0 423.9
14 22:20 11.1 100 10.07 11.1 9 11 1016.6 0.2 22.9 29.4 47.7 125.3 122.9 423.9
14 22:10 11.2 100 10.14 11.2 13 13 1016.6 0.2 23.0 29.5 47.9 126.0 123.8 426.9
14 22:00 11.2 99 10.04 11 13 15 1016.6 0.2 22.8 29.3 47.5 124.8 122.3 421.8
14 21:50 11.3 99 10.1 11.1 13 17 1016.5 0.2 22.9 29.3 47.7 125.3 123.0 424.3
14 21:40 11.4 98 10.06 11.1 13 15 1016.4 0.2 22.8 29.2 47.4 124.7 122.3 421.7
14 21:30 11.4 98 10.06 11.1 15 17 1016.3 0.2 22.8 29.2 47.4 124.7 122.3 421.6
14 21:20 11.6 98 10.19 11.3 19 20 1016.3 0.2 23.1 29.4 47.9 125.9 123.8 427.1
14 21:10 11.6 98 10.19 11.3 17 19 1016.3 0.2 23.1 29.4 47.9 125.9 123.8 427.1
14 21:00 11.7 98 10.25 11.4 17 19 1016.3 0.2 23.2 29.5 48.1 126.4 124.5 429.6
14 20:50 11.8 98 10.32 11.5 19 22 1016.2 0.2 23.4 29.6 48.3 127.1 125.4 432.5
14 20:40 11.9 98 10.38 11.6 17 19 1016.2 0.2 23.5 29.6 48.5 127.6 126.1 435.0
14 20:30 12 98 10.45 11.7 17 24 1016.1 0.2 23.7 29.7 48.7 128.3 126.9 437.9
14 20:20 12.2 99 10.68 12 15 24 1016.1 0.2 24.1 30.1 49.6 130.6 129.9 448.4
14 20:10 12.3 100 10.86 12.3 19 26 1015.9 0.2 24.5 30.3 50.4 132.6 132.4 457.0
14 20:00 12.4 99 10.82 12.2 22 24 1015.7 0.2 24.4 30.2 50.1 131.9 131.6 454.3
14 19:50 12.6 99 10.95 12.4 19 20 1015.7 0.2 24.7 30.4 50.6 133.1 133.1 459.7
14 19:40 12.7 99 11.02 12.5 19 20 1015.7 0.2 24.8 30.5 50.8 133.8 134.0 462.7
14 19:30 12.8 98 10.98 12.5 15 17 1015.4 0.2 24.8 30.3 50.5 133.1 133.2 459.9
14 19:20 12.9 97 10.93 12.4 17 19 1015.4 0.2 24.6 30.2 50.3 132.3 132.3 456.8
14 19:10 13 96 10.89 12.4 20 22 1015.3 0.2 24.5 30.1 50.0 131.6 131.5 454.1
14 19:00 13.3 95 10.98 12.5 20 22 1015.1 0.2 24.7 30.2 50.2 132.2 132.3 456.8
14 18:50 13.7 93 11.01 12.6 17 20 1015.1 0 24.8 30.1 50.1 131.8 132.0 456.0
14 18:40 13.7 92 10.89 12.4 13 15 1015 0 24.5 29.9 49.5 130.4 130.3 449.9
14 18:30 13.8 91 10.84 12.4 13 15 1014.8 0 24.4 29.7 49.3 129.6 129.4 446.7
14 18:20 13.9 90 10.79 12.3 11 13 1014.6 0 24.3 29.6 49.0 128.9 128.5 443.6
14 18:10 14 88 10.61 12 13 15 1014.4 0 23.9 29.2 48.1 126.6 125.7 434.0
14 18:00 14.1 86 10.44 11.8 11 13 1014.2 0 23.5 28.9 47.3 124.5 123.1 425.0
14 17:50 14.1 86 10.44 11.8 9 9 1014.1 0 23.5 28.9 47.3 124.5 123.1 425.0
14 17:40 13.9 86 10.31 11.6 9 11 1013.9 0 23.2 28.7 46.9 123.3 121.6 419.6
14 17:30 13.9 85 10.19 11.4 11 11 1013.8 0 23.0 28.5 46.3 121.9 119.9 413.7
14 17:20 13.8 85 10.13 11.3 13 13 1013.6 0 22.9 28.5 46.1 121.4 119.2 411.3
14 17:10 14.1 83 10.07 11.3 11 13 1013.5 0 22.7 28.2 45.7 120.2 117.9 406.7
14 17:00 14.4 80 9.89 11 15 15 1013.5 0 22.3 27.8 44.8 117.7 115.0 396.5
14 16:50 14.5 77 9.58 10.5 13 13 1013.3 0 21.7 27.3 43.4 114.1 110.6 381.2
14 16:40 15.1 76 9.8 10.9 9 9 1013.2 0 22.1 27.5 44.0 115.6 112.7 388.6
14 16:30 15.7 73 9.77 10.9 9 11 1013.1 0 22.0 27.2 43.5 114.4 111.4 384.2
14 16:20 16 72 9.81 11 9 9 1013 0 22.1 27.2 43.5 114.4 111.5 384.6
14 16:10 16.5 68 9.55 10.6 11 15 1012.9 0 21.5 26.6 42.2 110.9 107.3 370.1
14 16:00 16.7 68 9.66 10.8 13 13 1012.8 0 21.7 26.7 42.5 111.8 108.5 374.2
14 15:50 16.7 68 9.66 10.8 13 15 1012.7 0 21.7 26.7 42.5 111.8 108.5 374.1
14 15:40 17 69 9.98 11.3 19 20 1012.6 0 22.4 27.2 43.6 114.8 112.3 387.4
14 15:30 17.1 73 10.63 12.2 24 28 1012.5 0 23.8 28.2 46.2 121.7 120.8 417.4
14 15:20 17.2 79 11.57 13.5 9 9 1012.6 0 25.8 29.7 50.1 132.0 133.6 462.0
14 15:10 16.9 78 11.22 13 7 9 1012.4 0 25.0 29.2 48.8 128.5 129.2 446.7
14 15:00 16.7 80 11.37 13.2 7 15 1012.5 0 25.4 29.6 49.6 130.6 131.7 455.1
14 14:50 16.7 82 11.65 13.6 7 7 1012.5 0 26.0 30.0 50.8 133.8 135.6 468.9
14 14:40 16.7 83 11.79 13.8 7 7 1012.5 0 26.3 30.3 51.4 135.4 137.6 475.8
14 14:30 16.7 81 11.51 13.4 7 13 1012.6 0 25.7 29.8 50.2 132.2 133.6 462.0
14 14:20 16.9 80 11.51 13.4 7 9 1012.3 0 25.6 29.7 50.0 131.8 133.2 460.7
14 14:10 16.3 84 11.65 13.6 7 7 1012.3 0 26.0 30.2 51.0 134.4 136.3 471.2
14 14:00 16.3 85 11.79 13.8 6 6 1012.2 0 26.3 30.4 51.6 136.0 138.3 478.1
14 13:50 16.1 83 11.38 13.2 11 11 1012.3 0 25.4 29.8 50.0 131.7 132.8 459.1
14 13:40 16.2 84 11.58 13.5 11 11 1012.2 0 25.8 30.1 50.8 133.8 135.5 468.3
14 13:30 16.5 81 11.37 13.2 13 15 1012.5 0 25.4 29.6 49.7 130.9 132.0 456.3
14 13:20 16.2 83 11.45 13.3 9 13 1012.7 0 25.6 29.9 50.2 132.4 133.7 462.1
14 13:10 16.3 80 11.1 12.8 9 11 1012.9 0 24.8 29.3 48.7 128.2 128.6 444.5
14 13:00 16.2 81 11.17 12.9 15 20 1013 0 25.0 29.4 49.1 129.2 129.8 448.5
14 12:50 16.6 83 11.72 13.7 15 17 1013 0 26.1 30.2 51.2 134.8 136.8 473.1
14 12:40 16.5 82 11.51 13.4 19 19 1012.9 0 25.7 29.9 50.3 132.6 134.0 463.3
14 12:30 16.6 81 11.44 13.3 17 17 1013.1 0 25.5 29.7 50.0 131.6 132.9 459.4
14 12:20 16.3 86 11.93 14 15 17 1013.2 0 26.6 30.7 52.3 137.8 140.4 485.5
14 12:10 15.8 86 11.58 13.5 17 19 1013.3 0 25.9 30.3 51.1 134.6 136.3 471.2
14 12:00 15.8 86 11.58 13.5 19 24 1013.6 0 25.9 30.3 51.1 134.7 136.3 471.3
14 11:50 15.8 85 11.44 13.3 22 26 1013.6 0 25.6 30.0 50.5 133.0 134.3 464.3
14 11:40 16.2 84 11.58 13.5 22 24 1013.8 0 25.8 30.2 50.9 134.0 135.6 468.9
14 11:30 16.3 87 12.07 14.1 17 19 1013.9 0 26.9 31.0 52.9 139.5 142.4 492.7
14 11:20 15.7 86 11.51 13.4 20 20 1013.9 0 25.7 30.2 50.9 134.1 135.5 468.5
14 11:10 15.8 89 11.98 14 17 20 1014.1 0 26.7 31.0 52.9 139.4 142.1 491.5
14 11:00 15.6 90 11.97 14 17 20 1014.2 0 26.7 31.1 53.0 139.6 142.3 492.3
14 10:50 14.7 91 11.46 13.2 19 20 1014.3 0 25.7 30.5 51.4 135.3 136.6 472.3
14 10:40 14 92 11.1 12.7 20 22 1014.5 0 24.9 30.1 50.2 132.3 132.7 458.5
14 10:30 14 94 11.34 13.1 20 24 1014.6 0 25.5 30.5 51.3 135.1 136.2 470.6
14 10:20 13.8 93 11.08 12.7 22 26 1014.6 0 24.9 30.1 50.3 132.4 132.8 458.7
14 10:10 13.7 95 11.25 12.9 20 22 1014.6 0 25.3 30.5 51.1 134.6 135.4 467.9
14 10:00 13.3 95 10.98 12.5 28 32 1014.8 0 24.7 30.1 50.2 132.1 132.2 456.7
14 09:50 13.2 95 10.91 12.4 26 28 1014.6 0 24.6 30.1 49.9 131.5 131.4 453.7
14 09:40 13 95 10.77 12.2 28 30 1014.6 0 24.3 29.9 49.4 130.2 129.7 447.8
14 09:30 12.8 97 10.87 12.3 20 24 1014.8 0 24.5 30.1 50.0 131.7 131.5 454.1

Last Refresh: 15-Jun-2024 02:11:09

Bureau of Meteorology